createdAt,value
2018-05-21T00:00:41.824Z,29.30
2018-05-21T00:03:08.645Z,29.30
2018-05-21T00:05:42.125Z,29.30
2018-05-21T00:08:12.261Z,29.20
2018-05-21T00:10:38.649Z,29.30
2018-05-21T00:13:11.029Z,29.60
2018-05-21T00:15:42.106Z,29.20
2018-05-21T00:18:08.508Z,29.50
2018-05-21T00:20:35.779Z,29.30
2018-05-21T00:25:37.253Z,28.90
2018-05-21T00:28:07.024Z,29.20
2018-05-21T00:30:37.292Z,29.30
2018-05-21T00:33:04.516Z,29.70
2018-05-21T00:35:30.875Z,29.50
2018-05-21T00:37:58.119Z,29.70
2018-05-21T00:43:11.586Z,29.40
2018-05-21T00:45:46.064Z,29.70
2018-05-21T00:48:13.418Z,30.00
2018-05-21T00:50:41.234Z,30.00
2018-05-21T00:53:11.400Z,30.00
2018-05-21T00:55:42.181Z,29.80
2018-05-21T00:58:09.862Z,29.90
2018-05-21T01:00:39.097Z,29.90
2018-05-21T01:05:46.080Z,29.80
2018-05-21T01:08:12.442Z,29.60
2018-05-21T01:10:42.047Z,30.00
2018-05-21T01:13:12.679Z,30.00
2018-05-21T01:15:42.952Z,29.90
2018-05-21T01:18:12.409Z,29.90
2018-05-21T01:20:41.806Z,30.60
2018-05-21T01:23:11.840Z,30.00
2018-05-21T01:25:41.291Z,30.00
2018-05-21T01:28:12.746Z,30.00
2018-05-21T01:30:43.206Z,30.20
2018-05-21T01:33:12.458Z,30.40
2018-05-21T01:35:42.927Z,30.40
2018-05-21T01:38:12.843Z,30.40
2018-05-21T01:40:43.209Z,30.90
2018-05-21T01:43:11.090Z,30.60
2018-05-21T01:45:41.107Z,30.80
2018-05-21T01:48:11.020Z,30.20
2018-05-21T01:50:42.554Z,31.40
2018-05-21T01:53:11.738Z,31.20
2018-05-21T01:55:40.425Z,32.00
2018-05-21T01:58:11.504Z,31.90
2018-05-21T02:00:41.713Z,31.60
2018-05-21T02:03:10.483Z,32.10
2018-05-21T02:05:37.398Z,32.00
2018-05-21T02:08:03.740Z,32.50
2018-05-21T02:10:30.882Z,32.20
2018-05-21T02:12:58.146Z,31.90
2018-05-21T02:15:25.174Z,32.40
2018-05-21T02:17:57.514Z,32.40
2018-05-21T02:20:27.801Z,32.90
2018-05-21T02:22:55.630Z,32.70
2018-05-21T02:25:21.993Z,33.00
2018-05-21T02:27:48.364Z,33.30
2018-05-21T02:30:14.747Z,32.80
2018-05-21T02:32:41.219Z,32.90
2018-05-21T02:35:07.563Z,32.90
2018-05-21T02:37:35.224Z,33.00
2018-05-21T02:40:01.556Z,33.00
2018-05-21T02:42:28.039Z,33.70
2018-05-21T02:45:06.216Z,33.30
2018-05-21T02:47:32.691Z,33.40
2018-05-21T02:49:59.223Z,33.40
2018-05-21T02:52:26.850Z,33.40
2018-05-21T02:54:53.255Z,34.00
2018-05-21T02:57:19.697Z,33.70
2018-05-21T02:59:46.272Z,33.80
2018-05-21T03:02:12.739Z,34.50
2018-05-21T03:04:40.596Z,33.90
2018-05-21T03:07:13.201Z,33.40
2018-05-21T03:09:39.738Z,34.40
2018-05-21T03:12:07.134Z,34.30
2018-05-21T03:14:33.541Z,34.60
2018-05-21T03:16:59.911Z,34.90
2018-05-21T03:19:34.606Z,34.30
2018-05-21T03:22:01.870Z,34.50
2018-05-21T03:24:29.948Z,34.70
2018-05-21T03:26:57.320Z,34.80
2018-05-21T03:29:30.064Z,34.80
2018-05-21T03:31:58.406Z,35.50
2018-05-21T03:34:26.248Z,35.40
2018-05-21T03:36:52.615Z,35.50
2018-05-21T03:39:18.986Z,36.00
2018-05-21T03:41:45.285Z,35.60
2018-05-21T03:44:11.583Z,36.20
2018-05-21T03:46:37.924Z,36.10
2018-05-21T03:49:04.220Z,36.40
2018-05-21T03:51:33.160Z,36.10
2018-05-21T03:54:14.496Z,36.60
2018-05-21T03:56:42.108Z,36.40
2018-05-21T03:59:20.680Z,36.50
2018-05-21T04:04:40.457Z,36.70
2018-05-21T04:07:12.720Z,36.70
2018-05-21T04:09:42.875Z,37.00
2018-05-21T04:12:12.209Z,37.00
2018-05-21T04:14:41.757Z,37.00
2018-05-21T04:17:08.117Z,36.70
2018-05-21T04:19:42.172Z,38.00
2018-05-21T04:22:12.405Z,38.00
2018-05-21T04:24:39.151Z,38.00
2018-05-21T04:27:12.620Z,37.70
2018-05-21T04:29:42.692Z,38.00
2018-05-21T04:32:13.228Z,38.10
2018-05-21T04:34:39.963Z,38.10
2018-05-21T04:37:07.162Z,38.10
2018-05-21T04:39:43.532Z,38.10
2018-05-21T04:42:11.438Z,38.10
2018-05-21T04:44:41.715Z,38.20
2018-05-21T04:47:11.658Z,38.20
2018-05-21T04:49:41.985Z,38.20
2018-05-21T04:52:08.340Z,38.20
2018-05-21T04:54:41.596Z,38.20
2018-05-21T04:57:09.896Z,38.20
2018-05-21T04:59:42.548Z,38.70
2018-05-21T05:02:13.609Z,38.30
2018-05-21T05:04:41.473Z,38.30
2018-05-21T05:07:12.250Z,38.40
2018-05-21T05:09:43.948Z,38.90
2018-05-21T05:12:12.227Z,38.70
2018-05-21T05:14:44.329Z,38.50
2018-05-21T05:17:12.549Z,38.60
2018-05-21T05:19:38.996Z,38.70
2018-05-21T05:22:05.411Z,39.00
2018-05-21T05:24:42.096Z,38.80
2018-05-21T05:27:14.448Z,38.80
2018-05-21T05:29:41.995Z,38.80
2018-05-21T05:32:12.209Z,39.00
2018-05-21T05:37:43.028Z,39.10
2018-05-21T05:40:12.405Z,39.20
2018-05-21T05:42:43.444Z,39.30
2018-05-21T05:45:12.009Z,39.40
2018-05-21T05:47:44.690Z,39.30
2018-05-21T05:50:12.555Z,39.50
2018-05-21T05:52:49.458Z,39.50
2018-05-21T05:55:17.014Z,39.50
2018-05-21T05:57:44.112Z,39.10
2018-05-21T06:00:18.217Z,39.40
2018-05-21T06:02:46.909Z,39.40
2018-05-21T06:05:20.275Z,39.70
2018-05-21T06:07:46.745Z,39.70
2018-05-21T06:10:16.932Z,38.50
2018-05-21T06:12:46.393Z,39.20
2018-05-21T06:15:17.034Z,39.20
2018-05-21T06:17:46.445Z,38.40
2018-05-21T06:20:12.773Z,37.70
2018-05-21T06:22:39.153Z,37.50
2018-05-21T06:25:07.667Z,37.60
2018-05-21T06:27:34.041Z,37.60
2018-05-21T06:30:00.408Z,37.30
2018-05-21T06:32:26.772Z,37.10
2018-05-21T06:34:53.102Z,37.00
2018-05-21T06:37:20.215Z,36.30
2018-05-21T06:39:46.892Z,36.20
2018-05-21T06:42:13.201Z,35.80
2018-05-21T06:44:40.821Z,36.20
2018-05-21T06:47:07.230Z,36.20
2018-05-21T06:49:33.507Z,36.10
2018-05-21T06:52:00.534Z,35.60
2018-05-21T06:54:28.291Z,35.00
2018-05-21T06:56:57.897Z,35.20
2018-05-21T06:59:24.480Z,34.70
2018-05-21T07:01:50.913Z,35.20
2018-05-21T07:04:17.255Z,35.20
2018-05-21T07:06:43.631Z,35.10
2018-05-21T07:09:09.965Z,35.20
2018-05-21T07:11:38.216Z,34.70
2018-05-21T07:14:04.728Z,34.50
2018-05-21T07:16:33.220Z,34.00
2018-05-21T07:19:01.274Z,33.90
2018-05-21T07:21:27.569Z,34.00
2018-05-21T07:23:54.828Z,33.30
2018-05-21T07:26:21.273Z,33.20
2018-05-21T07:28:47.947Z,32.40
2018-05-21T07:31:14.342Z,32.20
2018-05-21T07:33:40.663Z,31.60
2018-05-21T07:36:07.252Z,31.60
2018-05-21T07:38:33.703Z,31.60
2018-05-21T07:40:59.974Z,31.70
2018-05-21T07:43:27.172Z,31.70
2018-05-21T07:45:53.555Z,31.80
2018-05-21T07:48:20.083Z,31.80
2018-05-21T07:50:47.643Z,31.80
2018-05-21T07:53:14.240Z,31.40
2018-05-21T07:55:40.864Z,30.60
2018-05-21T07:58:16.498Z,30.20
2018-05-21T08:00:45.236Z,30.90
2018-05-21T08:03:17.958Z,30.20
2018-05-21T08:05:48.591Z,29.40
2018-05-21T08:08:17.035Z,29.70
2018-05-21T08:10:46.476Z,30.30
2018-05-21T08:13:17.590Z,30.00
2018-05-21T08:15:44.189Z,29.70
2018-05-21T08:18:14.370Z,29.70
2018-05-21T08:20:46.893Z,29.80
2018-05-21T08:23:17.434Z,29.60
2018-05-21T08:25:47.289Z,29.60
2018-05-21T08:28:14.073Z,29.40
2018-05-21T08:30:46.125Z,29.70
2018-05-21T08:33:17.355Z,29.10
2018-05-21T08:35:48.310Z,29.10
2018-05-21T08:38:14.923Z,29.10
2018-05-21T08:40:41.743Z,29.70
2018-05-21T08:45:47.256Z,29.40
2018-05-21T08:48:16.321Z,29.20
2018-05-21T08:50:46.445Z,29.10
2018-05-21T08:53:16.784Z,29.10
2018-05-21T08:55:46.277Z,29.10
2018-05-21T08:58:13.483Z,29.30
2018-05-21T09:00:46.017Z,28.80
2018-05-21T09:03:14.359Z,28.90
2018-05-21T09:05:47.313Z,28.90
2018-05-21T09:08:16.549Z,28.70
2018-05-21T09:10:48.811Z,29.00
2018-05-21T09:13:17.561Z,29.40
2018-05-21T09:15:47.048Z,28.20
2018-05-21T09:18:16.447Z,28.30
2018-05-21T09:20:46.283Z,28.80
2018-05-21T09:23:13.593Z,28.40
2018-05-21T09:25:48.621Z,29.10
2018-05-21T09:28:15.291Z,29.10
2018-05-21T09:30:45.293Z,27.60
2018-05-21T09:33:12.904Z,27.50
2018-05-21T09:38:17.106Z,27.60
2018-05-21T09:40:47.284Z,28.10
2018-05-21T09:43:14.813Z,27.60
2018-05-21T09:48:43.101Z,26.90
2018-05-21T09:51:15.575Z,26.60
2018-05-21T09:53:42.404Z,26.80
2018-05-21T09:56:14.760Z,27.20
2018-05-21T09:58:47.447Z,27.10
2018-05-21T10:01:18.265Z,27.30
2018-05-21T10:03:45.858Z,27.20
2018-05-21T10:06:17.485Z,26.80
2018-05-21T10:08:47.121Z,26.50
2018-05-21T10:11:16.757Z,25.30
2018-05-21T10:13:46.568Z,25.70
2018-05-21T10:16:18.441Z,25.90
2018-05-21T10:21:21.614Z,25.60
2018-05-21T10:29:36.528Z,25.90
2018-05-21T10:32:04.124Z,25.90
2018-05-21T10:34:30.481Z,26.00
2018-05-21T10:36:58.608Z,25.00
2018-05-21T10:39:25.963Z,25.20
2018-05-21T10:41:52.570Z,24.80
2018-05-21T10:44:19.291Z,24.00
2018-05-21T10:46:47.199Z,23.90
2018-05-21T10:49:13.568Z,24.40
2018-05-21T10:51:43.082Z,24.20
2018-05-21T10:54:09.548Z,24.30
2018-05-21T10:56:38.323Z,23.00
2018-05-21T10:59:04.810Z,23.60
2018-05-21T11:01:31.243Z,23.50
2018-05-21T11:03:57.531Z,23.00
2018-05-21T11:06:24.133Z,23.30
2018-05-21T11:08:50.900Z,22.80
2018-05-21T11:11:18.561Z,22.40
2018-05-21T11:13:45.219Z,22.50
2018-05-21T11:16:12.430Z,22.50
2018-05-21T11:18:38.949Z,22.70
2018-05-21T11:21:05.909Z,22.10
2018-05-21T11:23:33.022Z,21.80
2018-05-21T11:25:59.710Z,21.90
2018-05-21T11:28:26.379Z,20.70
2018-05-21T11:30:52.992Z,21.30
2018-05-21T11:33:19.380Z,21.30
2018-05-21T11:35:47.862Z,21.70
2018-05-21T11:38:15.377Z,21.50
2018-05-21T11:40:41.604Z,21.50
2018-05-21T11:43:08.674Z,20.90
2018-05-21T11:45:35.010Z,20.80
2018-05-21T11:48:04.082Z,21.60
2018-05-21T11:50:30.750Z,21.20
2018-05-21T11:52:58.800Z,21.90
2018-05-21T11:55:25.229Z,21.10
2018-05-21T11:57:51.791Z,20.20
2018-05-21T12:00:18.292Z,19.90
2018-05-21T12:02:45.253Z,20.40
2018-05-21T12:05:11.888Z,19.70
2018-05-21T12:07:38.219Z,20.70
2018-05-21T12:10:04.523Z,20.70
2018-05-21T12:12:31.041Z,19.90
2018-05-21T12:14:57.483Z,19.70
2018-05-21T12:17:27.329Z,19.70
2018-05-21T12:19:54.326Z,19.70
2018-05-21T12:22:20.696Z,19.80
2018-05-21T12:24:47.197Z,19.10
2018-05-21T12:27:15.190Z,19.00
2018-05-21T12:29:41.465Z,18.60
2018-05-21T12:32:07.870Z,18.90
2018-05-21T12:34:34.297Z,18.30
2018-05-21T12:37:02.762Z,18.80
2018-05-21T12:39:29.971Z,18.60
2018-05-21T12:41:56.264Z,17.80
2018-05-21T12:44:22.556Z,17.90
2018-05-21T12:46:48.898Z,17.40
2018-05-21T12:49:15.281Z,17.50
2018-05-21T12:51:41.666Z,18.10
2018-05-21T12:54:08.047Z,17.40
2018-05-21T12:56:34.458Z,17.80
2018-05-21T12:59:03.604Z,17.20
2018-05-21T13:01:35.929Z,18.30
2018-05-21T13:04:02.553Z,18.10
2018-05-21T13:06:29.690Z,18.20
2018-05-21T13:08:56.312Z,18.80
2018-05-21T13:11:22.901Z,17.80
2018-05-21T13:13:49.499Z,17.30
2018-05-21T13:16:15.844Z,17.60
2018-05-21T13:18:45.636Z,17.00
2018-05-21T13:21:13.088Z,17.10
2018-05-21T13:23:41.085Z,17.30
2018-05-21T13:28:45.272Z,17.10
2018-05-21T13:31:11.760Z,17.00
2018-05-21T13:33:39.659Z,17.30
2018-05-21T13:36:05.948Z,17.70
2018-05-21T13:38:37.809Z,17.90
2018-05-21T13:41:05.415Z,17.90
2018-05-21T13:43:32.500Z,17.90
2018-05-21T13:45:58.830Z,17.30
2018-05-21T13:48:25.114Z,17.10
2018-05-21T13:50:51.427Z,17.10
2018-05-21T13:53:17.688Z,18.40
2018-05-21T13:55:47.921Z,18.30
2018-05-21T13:58:16.180Z,17.80
2018-05-21T14:00:44.013Z,17.90
2018-05-21T14:03:10.664Z,17.60
2018-05-21T14:05:37.088Z,17.60
2018-05-21T14:08:03.801Z,18.00
2018-05-21T14:10:30.016Z,18.20
2018-05-21T14:12:56.785Z,18.90
2018-05-21T14:15:26.687Z,18.70
2018-05-21T14:17:53.012Z,18.90
2018-05-21T14:20:19.460Z,19.00
2018-05-21T14:22:45.738Z,19.20
2018-05-21T14:25:12.254Z,19.20
2018-05-21T14:27:40.362Z,19.20
2018-05-21T14:30:06.724Z,19.20
2018-05-21T14:32:32.986Z,19.80
2018-05-21T14:34:59.300Z,19.10
2018-05-21T14:37:26.306Z,18.70
2018-05-21T14:39:52.598Z,18.70
2018-05-21T14:42:19.656Z,19.00
2018-05-21T14:44:46.772Z,19.00
2018-05-21T14:47:19.035Z,19.00
2018-05-21T14:52:43.996Z,19.00
2018-05-21T14:55:11.431Z,18.90
2018-05-21T14:57:47.242Z,18.90
2018-05-21T15:00:16.165Z,18.80
2018-05-21T15:02:43.157Z,19.90
2018-05-21T15:05:14.932Z,19.50
2018-05-21T15:07:42.609Z,20.20
2018-05-21T15:10:10.617Z,18.80
2018-05-21T15:12:43.511Z,18.90
2018-05-21T15:15:19.670Z,19.60
2018-05-21T15:17:46.229Z,19.80
2018-05-21T15:20:16.426Z,20.00
2018-05-21T15:22:43.828Z,19.30
2018-05-21T15:25:17.928Z,19.50
2018-05-21T15:27:47.947Z,19.60
2018-05-21T15:30:17.383Z,19.60
2018-05-21T15:32:43.653Z,19.70
2018-05-21T15:35:12.198Z,18.90
2018-05-21T15:37:38.658Z,19.50
2018-05-21T15:40:05.056Z,19.60
2018-05-21T15:42:31.407Z,19.80
2018-05-21T15:45:01.873Z,19.90
2018-05-21T15:47:32.776Z,19.90
2018-05-21T15:50:04.641Z,19.80
2018-05-21T15:52:32.561Z,19.90
2018-05-21T15:55:09.350Z,19.90
2018-05-21T15:57:35.940Z,20.30
2018-05-21T16:00:03.162Z,19.80
2018-05-21T16:02:29.599Z,21.00
2018-05-21T16:05:02.939Z,20.70
2018-05-21T16:07:29.917Z,20.60
2018-05-21T16:10:04.901Z,20.50
2018-05-21T16:12:31.247Z,21.00
2018-05-21T16:14:58.036Z,20.80
2018-05-21T16:17:25.728Z,21.10
2018-05-21T16:20:01.846Z,21.80
2018-05-21T16:22:41.381Z,20.60
2018-05-21T16:25:10.474Z,21.00
2018-05-21T16:27:39.426Z,20.80
2018-05-21T16:30:06.157Z,20.00
2018-05-21T16:32:32.441Z,20.30
2018-05-21T16:35:01.488Z,20.30
2018-05-21T16:37:31.813Z,20.50
2018-05-21T16:40:03.476Z,20.40
2018-05-21T16:42:32.616Z,20.60
2018-05-21T16:45:02.253Z,20.50
2018-05-21T16:47:32.203Z,20.50
2018-05-21T16:50:04.473Z,20.40
2018-05-21T16:52:33.088Z,20.20
2018-05-21T16:55:04.622Z,20.30
2018-05-21T16:57:32.800Z,20.40
2018-05-21T17:00:01.597Z,20.10
2018-05-21T17:02:28.240Z,20.60
2018-05-21T17:04:54.572Z,20.40
2018-05-21T17:10:07.879Z,20.20
2018-05-21T17:12:42.237Z,20.60
2018-05-21T17:15:18.582Z,20.30
2018-05-21T17:17:46.139Z,20.10
2018-05-21T17:20:33.927Z,20.40
2018-05-21T17:23:03.641Z,20.40
2018-05-21T17:25:33.489Z,21.20
2018-05-21T17:28:16.812Z,21.10
2018-05-21T17:30:49.479Z,21.20
2018-05-21T17:33:16.953Z,20.60
2018-05-21T17:35:49.467Z,22.40
2018-05-21T17:38:17.114Z,21.40
2018-05-21T17:40:49.036Z,21.70
2018-05-21T17:43:16.419Z,22.00
2018-05-21T17:45:46.971Z,22.30
2018-05-21T17:48:16.960Z,21.80
2018-05-21T17:50:46.777Z,22.20
2018-05-21T17:53:15.118Z,23.00
2018-05-21T17:58:45.467Z,22.10
2018-05-21T18:01:11.981Z,22.60
2018-05-21T18:03:39.716Z,22.20
2018-05-21T18:06:06.180Z,22.70
2018-05-21T18:08:38.962Z,23.30
2018-05-21T18:11:12.067Z,23.10
2018-05-21T18:13:39.998Z,22.80
2018-05-21T18:16:07.138Z,23.80
2018-05-21T18:18:33.559Z,23.80
2018-05-21T18:20:59.814Z,24.90
2018-05-21T18:23:28.886Z,25.10
2018-05-21T18:25:55.179Z,25.70
2018-05-21T18:28:21.467Z,25.70
2018-05-21T18:30:47.727Z,26.00
2018-05-21T18:33:15.819Z,27.20
2018-05-21T18:35:43.232Z,28.10
2018-05-21T18:38:11.640Z,28.10
2018-05-21T18:40:37.928Z,28.60
2018-05-21T18:43:04.382Z,28.90
2018-05-21T18:45:30.688Z,29.10
2018-05-21T18:47:57.256Z,29.90
2018-05-21T18:50:23.707Z,30.70
2018-05-21T18:52:50.111Z,31.80
2018-05-21T18:55:16.524Z,32.20
2018-05-21T18:57:44.891Z,33.00
2018-05-21T19:00:11.501Z,33.70
2018-05-21T19:02:38.414Z,34.60
2018-05-21T19:05:04.675Z,34.60
2018-05-21T19:07:31.657Z,35.00
2018-05-21T19:09:58.067Z,34.80
2018-05-21T19:12:24.403Z,34.80
2018-05-21T19:15:12.329Z,34.80
2018-05-21T19:17:38.719Z,35.00
2018-05-21T19:22:41.154Z,35.90
2018-05-21T19:25:12.251Z,36.30
2018-05-21T19:27:39.550Z,36.30
2018-05-21T19:30:09.008Z,36.90
2018-05-21T19:32:35.623Z,37.30
2018-05-21T19:35:02.019Z,38.00
2018-05-21T19:37:28.286Z,37.80
2018-05-21T19:39:54.624Z,37.80
2018-05-21T19:42:21.532Z,38.70
2018-05-21T19:44:47.776Z,39.00
2018-05-21T19:47:14.117Z,39.50
2018-05-21T19:49:41.159Z,40.00
2018-05-21T19:52:07.601Z,39.90
2018-05-21T19:54:34.676Z,39.60
2018-05-21T19:57:01.711Z,39.60
2018-05-21T19:59:27.917Z,39.60
2018-05-21T20:01:54.320Z,39.70
2018-05-21T20:04:20.823Z,40.10
2018-05-21T20:09:28.292Z,40.80
2018-05-21T20:11:55.864Z,41.80
2018-05-21T20:14:22.396Z,41.80
2018-05-21T20:16:49.963Z,41.70
2018-05-21T20:19:16.496Z,42.20
2018-05-21T20:21:42.982Z,42.00
2018-05-21T20:24:11.874Z,42.90
2018-05-21T20:26:53.343Z,42.90
2018-05-21T20:29:19.833Z,42.80
2018-05-21T20:31:46.303Z,42.60
2018-05-21T20:34:12.806Z,42.40
2018-05-21T20:36:39.107Z,43.00
2018-05-21T20:39:05.525Z,43.00
2018-05-21T20:41:36.413Z,43.00
2018-05-21T20:47:13.632Z,42.70
2018-05-21T20:49:39.901Z,43.70
2018-05-21T20:52:06.410Z,43.30
2018-05-21T20:54:32.671Z,43.60
2018-05-21T20:56:59.247Z,44.10
2018-05-21T20:59:26.093Z,44.40
2018-05-21T21:01:52.337Z,43.40
2018-05-21T21:04:19.993Z,44.10
2018-05-21T21:06:54.230Z,44.60
2018-05-21T21:09:21.892Z,44.70
2018-05-21T21:14:24.117Z,43.70
2018-05-21T21:16:50.412Z,44.00
2018-05-21T21:19:16.871Z,44.50
2018-05-21T21:21:43.341Z,45.00
2018-05-21T21:24:09.844Z,44.70
2018-05-21T21:26:36.191Z,44.60
2018-05-21T21:29:02.776Z,44.30
2018-05-21T21:31:29.091Z,44.20
2018-05-21T21:33:56.462Z,44.00
2018-05-21T21:36:22.753Z,44.10
2018-05-21T21:38:49.319Z,44.50
2018-05-21T21:41:16.126Z,43.80
2018-05-21T21:43:43.941Z,44.10
2018-05-21T21:46:11.272Z,40.90
2018-05-21T21:48:39.197Z,42.20
2018-05-21T21:51:07.766Z,42.20
2018-05-21T21:53:40.804Z,42.70
2018-05-21T21:56:07.343Z,41.90
2018-05-21T21:58:33.635Z,41.40
2018-05-21T22:00:59.918Z,40.80
2018-05-21T22:03:26.245Z,40.80
2018-05-21T22:05:52.582Z,39.80
2018-05-21T22:08:18.917Z,40.70
2018-05-21T22:10:45.251Z,40.40
2018-05-21T22:13:11.892Z,38.70
2018-05-21T22:15:41.423Z,38.20
2018-05-21T22:18:08.268Z,38.00
2018-05-21T22:20:34.824Z,38.60
2018-05-21T22:23:01.376Z,40.50
2018-05-21T22:25:28.415Z,42.40
2018-05-21T22:27:55.764Z,42.40
2018-05-21T22:30:22.045Z,42.50
2018-05-21T22:32:49.585Z,40.40
2018-05-21T22:35:16.021Z,40.40
2018-05-21T22:37:44.152Z,40.40
2018-05-21T22:40:11.119Z,40.40
2018-05-21T22:42:42.493Z,39.40
2018-05-21T22:45:12.687Z,38.80
2018-05-21T22:47:41.980Z,39.50
2018-05-21T22:50:10.250Z,39.00
2018-05-21T22:52:43.561Z,38.50
2018-05-21T22:55:11.737Z,38.50
2018-05-21T22:57:43.605Z,39.00
2018-05-21T23:00:12.503Z,38.80
2018-05-21T23:02:43.723Z,38.30
2018-05-21T23:05:12.088Z,37.70
2018-05-21T23:07:42.146Z,38.70
2018-05-21T23:10:12.463Z,38.50
2018-05-21T23:12:43.033Z,38.40
2018-05-21T23:15:13.088Z,38.10
2018-05-21T23:17:42.664Z,37.90
2018-05-21T23:20:13.160Z,38.20
2018-05-21T23:22:43.873Z,38.00
2018-05-21T23:25:13.437Z,38.20
2018-05-21T23:27:43.762Z,38.20
2018-05-21T23:30:13.964Z,38.70
2018-05-21T23:32:42.346Z,38.70
2018-05-21T23:35:12.567Z,39.10
2018-05-21T23:40:42.901Z,38.40
2018-05-21T23:43:12.943Z,38.70
2018-05-21T23:45:42.509Z,38.70
2018-05-21T23:48:09.520Z,38.90
2018-05-21T23:50:42.911Z,38.50
2018-05-21T23:53:12.700Z,39.50
2018-05-21T23:55:43.415Z,39.50
2018-05-21T23:58:12.945Z,39.50
